sensor_id;sensor_type;location;lat;lon;timestamp;P1;durP1;ratioP1;P2;durP2;ratioP2
20067;SDS011;10194;50.824;7.134;2023-06-04T00:01:43;126.70;;;63.23;;
20067;SDS011;10194;50.824;7.134;2023-06-04T00:04:11;130.90;;;62.97;;
20067;SDS011;10194;50.824;7.134;2023-06-04T00:06:37;129.50;;;63.93;;
20067;SDS011;10194;50.824;7.134;2023-06-04T00:09:02;127.17;;;63.40;;
20067;SDS011;10194;50.824;7.134;2023-06-04T00:11:28;125.50;;;61.83;;
20067;SDS011;10194;50.824;7.134;2023-06-04T00:13:54;126.77;;;62.50;;
20067;SDS011;10194;50.824;7.134;2023-06-04T00:16:20;125.67;;;62.40;;
20067;SDS011;10194;50.824;7.134;2023-06-04T00:18:45;124.67;;;61.90;;
20067;SDS011;10194;50.824;7.134;2023-06-04T00:21:11;126.67;;;62.57;;
20067;SDS011;10194;50.824;7.134;2023-06-04T00:23:37;125.83;;;61.50;;
20067;SDS011;10194;50.824;7.134;2023-06-04T00:26:03;124.27;;;61.57;;
20067;SDS011;10194;50.824;7.134;2023-06-04T00:28:29;129.50;;;61.87;;
20067;SDS011;10194;50.824;7.134;2023-06-04T00:30:54;126.13;;;61.83;;
20067;SDS011;10194;50.824;7.134;2023-06-04T00:33:20;124.80;;;61.83;;
20067;SDS011;10194;50.824;7.134;2023-06-04T00:35:46;127.00;;;61.27;;
20067;SDS011;10194;50.824;7.134;2023-06-04T00:38:11;125.03;;;61.50;;
20067;SDS011;10194;50.824;7.134;2023-06-04T00:40:37;125.23;;;61.77;;
20067;SDS011;10194;50.824;7.134;2023-06-04T00:43:03;125.47;;;61.73;;
20067;SDS011;10194;50.824;7.134;2023-06-04T00:45:29;123.97;;;61.63;;
20067;SDS011;10194;50.824;7.134;2023-06-04T00:47:56;125.20;;;62.10;;
20067;SDS011;10194;50.824;7.134;2023-06-04T00:50:21;124.30;;;61.33;;
20067;SDS011;10194;50.824;7.134;2023-06-04T00:52:50;123.80;;;61.37;;
20067;SDS011;10194;50.824;7.134;2023-06-04T00:55:17;124.50;;;62.03;;
20067;SDS011;10194;50.824;7.134;2023-06-04T00:57:43;126.70;;;62.47;;
20067;SDS011;10194;50.824;7.134;2023-06-04T01:00:09;127.40;;;63.17;;
20067;SDS011;10194;50.824;7.134;2023-06-04T01:02:37;127.27;;;62.90;;
20067;SDS011;10194;50.824;7.134;2023-06-04T01:05:21;125.27;;;61.87;;
20067;SDS011;10194;50.824;7.134;2023-06-04T01:08:02;125.50;;;61.13;;
20067;SDS011;10194;50.824;7.134;2023-06-04T01:10:33;125.47;;;61.37;;
20067;SDS011;10194;50.824;7.134;2023-06-04T01:13:00;126.00;;;61.63;;
20067;SDS011;10194;50.824;7.134;2023-06-04T01:15:26;127.87;;;61.00;;
20067;SDS011;10194;50.824;7.134;2023-06-04T01:17:53;124.77;;;61.27;;
20067;SDS011;10194;50.824;7.134;2023-06-04T01:20:40;124.40;;;61.23;;
20067;SDS011;10194;50.824;7.134;2023-06-04T01:23:22;126.67;;;61.37;;
20067;SDS011;10194;50.824;7.134;2023-06-04T01:25:53;126.30;;;61.20;;
20067;SDS011;10194;50.824;7.134;2023-06-04T01:28:22;125.23;;;61.57;;
20067;SDS011;10194;50.824;7.134;2023-06-04T01:30:48;124.10;;;60.70;;
20067;SDS011;10194;50.824;7.134;2023-06-04T01:33:16;124.93;;;60.80;;
20067;SDS011;10194;50.824;7.134;2023-06-04T01:35:44;123.77;;;61.20;;
20067;SDS011;10194;50.824;7.134;2023-06-04T01:38:10;123.60;;;61.10;;
20067;SDS011;10194;50.824;7.134;2023-06-04T01:40:36;123.03;;;60.90;;
20067;SDS011;10194;50.824;7.134;2023-06-04T01:43:02;125.27;;;61.83;;
20067;SDS011;10194;50.824;7.134;2023-06-04T01:45:29;125.40;;;62.57;;
20067;SDS011;10194;50.824;7.134;2023-06-04T01:47:55;122.23;;;61.80;;
20067;SDS011;10194;50.824;7.134;2023-06-04T01:50:21;127.50;;;62.57;;
20067;SDS011;10194;50.824;7.134;2023-06-04T01:52:48;125.43;;;62.73;;
20067;SDS011;10194;50.824;7.134;2023-06-04T01:55:15;124.80;;;62.83;;
20067;SDS011;10194;50.824;7.134;2023-06-04T01:57:42;125.53;;;63.90;;
20067;SDS011;10194;50.824;7.134;2023-06-04T02:00:10;125.60;;;63.87;;
20067;SDS011;10194;50.824;7.134;2023-06-04T02:02:37;126.57;;;64.37;;
20067;SDS011;10194;50.824;7.134;2023-06-04T02:05:05;126.53;;;63.70;;
20067;SDS011;10194;50.824;7.134;2023-06-04T02:07:33;129.60;;;66.23;;
20067;SDS011;10194;50.824;7.134;2023-06-04T02:10:00;125.27;;;64.33;;
20067;SDS011;10194;50.824;7.134;2023-06-04T02:12:26;127.63;;;64.33;;
20067;SDS011;10194;50.824;7.134;2023-06-04T02:14:52;126.90;;;65.57;;
20067;SDS011;10194;50.824;7.134;2023-06-04T02:17:17;125.60;;;65.30;;
20067;SDS011;10194;50.824;7.134;2023-06-04T02:19:43;127.43;;;66.63;;
20067;SDS011;10194;50.824;7.134;2023-06-04T02:22:13;127.03;;;67.97;;
20067;SDS011;10194;50.824;7.134;2023-06-04T02:24:39;129.37;;;69.03;;
20067;SDS011;10194;50.824;7.134;2023-06-04T02:27:07;127.03;;;68.93;;
20067;SDS011;10194;50.824;7.134;2023-06-04T02:29:34;128.47;;;68.77;;
20067;SDS011;10194;50.824;7.134;2023-06-04T02:32:00;126.80;;;69.13;;
20067;SDS011;10194;50.824;7.134;2023-06-04T02:34:27;127.60;;;69.70;;
20067;SDS011;10194;50.824;7.134;2023-06-04T02:36:53;125.27;;;68.13;;
20067;SDS011;10194;50.824;7.134;2023-06-04T02:39:19;128.27;;;67.43;;
20067;SDS011;10194;50.824;7.134;2023-06-04T02:41:45;125.50;;;68.83;;
20067;SDS011;10194;50.824;7.134;2023-06-04T02:44:11;126.23;;;67.30;;
20067;SDS011;10194;50.824;7.134;2023-06-04T02:46:37;124.47;;;68.30;;
20067;SDS011;10194;50.824;7.134;2023-06-04T02:49:03;127.47;;;72.00;;
20067;SDS011;10194;50.824;7.134;2023-06-04T02:51:30;130.03;;;76.53;;
20067;SDS011;10194;50.824;7.134;2023-06-04T02:53:57;127.80;;;73.63;;
20067;SDS011;10194;50.824;7.134;2023-06-04T02:56:23;127.50;;;74.77;;
20067;SDS011;10194;50.824;7.134;2023-06-04T02:58:50;130.23;;;75.70;;
20067;SDS011;10194;50.824;7.134;2023-06-04T03:01:21;131.27;;;78.97;;
20067;SDS011;10194;50.824;7.134;2023-06-04T03:03:51;135.13;;;83.67;;
20067;SDS011;10194;50.824;7.134;2023-06-04T03:06:19;132.13;;;82.47;;
20067;SDS011;10194;50.824;7.134;2023-06-04T03:08:46;135.37;;;81.00;;
20067;SDS011;10194;50.824;7.134;2023-06-04T03:11:16;134.03;;;85.23;;
20067;SDS011;10194;50.824;7.134;2023-06-04T03:13:45;138.43;;;88.13;;
20067;SDS011;10194;50.824;7.134;2023-06-04T03:16:12;133.80;;;86.37;;
20067;SDS011;10194;50.824;7.134;2023-06-04T03:18:41;134.20;;;85.53;;
20067;SDS011;10194;50.824;7.134;2023-06-04T03:21:08;138.23;;;94.47;;
20067;SDS011;10194;50.824;7.134;2023-06-04T03:23:36;140.37;;;97.53;;
20067;SDS011;10194;50.824;7.134;2023-06-04T03:26:03;138.30;;;94.47;;
20067;SDS011;10194;50.824;7.134;2023-06-04T03:28:30;139.27;;;98.20;;
20067;SDS011;10194;50.824;7.134;2023-06-04T03:30:56;143.23;;;98.50;;
20067;SDS011;10194;50.824;7.134;2023-06-04T03:33:22;140.20;;;96.67;;
20067;SDS011;10194;50.824;7.134;2023-06-04T03:35:49;142.07;;;102.03;;
20067;SDS011;10194;50.824;7.134;2023-06-04T03:38:17;145.00;;;105.93;;
20067;SDS011;10194;50.824;7.134;2023-06-04T03:40:44;147.83;;;108.77;;
20067;SDS011;10194;50.824;7.134;2023-06-04T03:43:11;149.80;;;116.03;;
20067;SDS011;10194;50.824;7.134;2023-06-04T03:45:36;146.67;;;110.57;;
20067;SDS011;10194;50.824;7.134;2023-06-04T03:48:02;147.17;;;110.47;;
20067;SDS011;10194;50.824;7.134;2023-06-04T03:50:29;149.53;;;115.77;;
20067;SDS011;10194;50.824;7.134;2023-06-04T03:52:55;155.93;;;116.33;;
20067;SDS011;10194;50.824;7.134;2023-06-04T03:55:21;147.37;;;110.43;;
20067;SDS011;10194;50.824;7.134;2023-06-04T03:57:47;149.93;;;115.37;;
20067;SDS011;10194;50.824;7.134;2023-06-04T04:00:13;149.70;;;110.63;;
20067;SDS011;10194;50.824;7.134;2023-06-04T04:02:40;147.00;;;108.40;;
20067;SDS011;10194;50.824;7.134;2023-06-04T04:05:07;145.43;;;110.60;;
20067;SDS011;10194;50.824;7.134;2023-06-04T04:07:34;147.37;;;106.80;;
20067;SDS011;10194;50.824;7.134;2023-06-04T04:10:00;143.77;;;103.00;;
20067;SDS011;10194;50.824;7.134;2023-06-04T04:12:26;147.37;;;108.23;;
20067;SDS011;10194;50.824;7.134;2023-06-04T04:14:52;148.93;;;106.33;;
20067;SDS011;10194;50.824;7.134;2023-06-04T04:17:18;153.67;;;112.73;;
20067;SDS011;10194;50.824;7.134;2023-06-04T04:19:44;153.07;;;110.17;;
20067;SDS011;10194;50.824;7.134;2023-06-04T04:22:10;148.03;;;105.80;;
20067;SDS011;10194;50.824;7.134;2023-06-04T04:24:36;144.60;;;98.77;;
20067;SDS011;10194;50.824;7.134;2023-06-04T04:27:02;146.10;;;99.77;;
20067;SDS011;10194;50.824;7.134;2023-06-04T04:29:29;153.43;;;102.23;;
20067;SDS011;10194;50.824;7.134;2023-06-04T04:31:59;149.80;;;103.80;;
20067;SDS011;10194;50.824;7.134;2023-06-04T04:34:35;152.47;;;111.33;;
20067;SDS011;10194;50.824;7.134;2023-06-04T04:37:03;149.13;;;104.33;;
20067;SDS011;10194;50.824;7.134;2023-06-04T04:39:29;154.93;;;98.43;;
20067;SDS011;10194;50.824;7.134;2023-06-04T04:41:54;142.20;;;94.23;;
20067;SDS011;10194;50.824;7.134;2023-06-04T04:44:20;145.27;;;95.53;;
20067;SDS011;10194;50.824;7.134;2023-06-04T04:46:49;138.60;;;88.33;;
20067;SDS011;10194;50.824;7.134;2023-06-04T04:49:15;141.63;;;90.37;;
20067;SDS011;10194;50.824;7.134;2023-06-04T04:51:40;139.70;;;89.23;;
20067;SDS011;10194;50.824;7.134;2023-06-04T04:54:06;138.87;;;88.93;;
20067;SDS011;10194;50.824;7.134;2023-06-04T04:56:32;137.63;;;85.87;;
20067;SDS011;10194;50.824;7.134;2023-06-04T04:58:59;136.87;;;82.53;;
20067;SDS011;10194;50.824;7.134;2023-06-04T05:01:25;137.13;;;80.90;;
20067;SDS011;10194;50.824;7.134;2023-06-04T05:03:51;137.63;;;78.37;;
20067;SDS011;10194;50.824;7.134;2023-06-04T05:06:17;135.70;;;78.60;;
20067;SDS011;10194;50.824;7.134;2023-06-04T05:08:43;134.37;;;72.50;;
20067;SDS011;10194;50.824;7.134;2023-06-04T05:11:09;132.73;;;71.53;;
20067;SDS011;10194;50.824;7.134;2023-06-04T05:13:35;131.50;;;72.03;;
20067;SDS011;10194;50.824;7.134;2023-06-04T05:16:01;129.80;;;66.43;;
20067;SDS011;10194;50.824;7.134;2023-06-04T05:18:39;129.57;;;66.27;;
20067;SDS011;10194;50.824;7.134;2023-06-04T05:21:09;127.60;;;64.70;;
20067;SDS011;10194;50.824;7.134;2023-06-04T05:23:37;128.50;;;65.10;;
20067;SDS011;10194;50.824;7.134;2023-06-04T05:26:04;130.43;;;64.77;;
20067;SDS011;10194;50.824;7.134;2023-06-04T05:28:30;127.70;;;64.80;;
20067;SDS011;10194;50.824;7.134;2023-06-04T05:30:58;129.13;;;64.93;;
20067;SDS011;10194;50.824;7.134;2023-06-04T05:33:27;127.93;;;64.67;;
20067;SDS011;10194;50.824;7.134;2023-06-04T05:35:55;128.80;;;64.57;;
20067;SDS011;10194;50.824;7.134;2023-06-04T05:38:23;128.30;;;64.30;;
20067;SDS011;10194;50.824;7.134;2023-06-04T05:40:53;129.77;;;65.53;;
20067;SDS011;10194;50.824;7.134;2023-06-04T05:43:22;131.03;;;65.10;;
20067;SDS011;10194;50.824;7.134;2023-06-04T05:45:48;129.00;;;64.23;;
20067;SDS011;10194;50.824;7.134;2023-06-04T05:48:16;127.83;;;64.17;;
20067;SDS011;10194;50.824;7.134;2023-06-04T05:50:42;131.17;;;65.27;;
20067;SDS011;10194;50.824;7.134;2023-06-04T05:53:08;133.17;;;66.53;;
20067;SDS011;10194;50.824;7.134;2023-06-04T05:55:33;133.77;;;64.93;;
20067;SDS011;10194;50.824;7.134;2023-06-04T05:57:59;130.77;;;65.83;;
20067;SDS011;10194;50.824;7.134;2023-06-04T06:00:25;131.67;;;65.07;;
20067;SDS011;10194;50.824;7.134;2023-06-04T06:02:51;132.40;;;66.17;;
20067;SDS011;10194;50.824;7.134;2023-06-04T06:05:17;131.00;;;66.13;;
20067;SDS011;10194;50.824;7.134;2023-06-04T06:07:45;130.63;;;66.23;;
20067;SDS011;10194;50.824;7.134;2023-06-04T06:10:11;131.23;;;66.93;;
20067;SDS011;10194;50.824;7.134;2023-06-04T06:12:37;130.03;;;65.93;;
20067;SDS011;10194;50.824;7.134;2023-06-04T06:15:03;131.97;;;66.87;;
20067;SDS011;10194;50.824;7.134;2023-06-04T06:17:30;133.23;;;67.70;;
20067;SDS011;10194;50.824;7.134;2023-06-04T06:19:57;134.53;;;68.43;;
20067;SDS011;10194;50.824;7.134;2023-06-04T06:22:23;134.70;;;68.73;;
20067;SDS011;10194;50.824;7.134;2023-06-04T06:24:50;137.27;;;69.93;;
20067;SDS011;10194;50.824;7.134;2023-06-04T06:27:16;134.17;;;69.33;;
20067;SDS011;10194;50.824;7.134;2023-06-04T06:29:43;135.80;;;69.77;;
20067;SDS011;10194;50.824;7.134;2023-06-04T06:32:09;135.50;;;69.73;;
20067;SDS011;10194;50.824;7.134;2023-06-04T06:34:36;135.57;;;70.00;;
20067;SDS011;10194;50.824;7.134;2023-06-04T06:37:03;136.40;;;70.93;;
20067;SDS011;10194;50.824;7.134;2023-06-04T06:39:29;143.67;;;75.30;;
20067;SDS011;10194;50.824;7.134;2023-06-04T06:41:55;139.50;;;73.57;;
20067;SDS011;10194;50.824;7.134;2023-06-04T06:44:21;137.63;;;74.50;;
20067;SDS011;10194;50.824;7.134;2023-06-04T06:46:47;136.70;;;74.10;;
20067;SDS011;10194;50.824;7.134;2023-06-04T06:49:13;141.93;;;74.23;;
20067;SDS011;10194;50.824;7.134;2023-06-04T06:51:40;140.63;;;73.10;;
20067;SDS011;10194;50.824;7.134;2023-06-04T06:54:08;136.07;;;72.63;;
20067;SDS011;10194;50.824;7.134;2023-06-04T06:56:34;139.53;;;72.10;;
20067;SDS011;10194;50.824;7.134;2023-06-04T06:59:00;137.57;;;73.03;;
20067;SDS011;10194;50.824;7.134;2023-06-04T07:01:25;136.30;;;74.27;;
20067;SDS011;10194;50.824;7.134;2023-06-04T07:03:51;139.70;;;78.00;;
20067;SDS011;10194;50.824;7.134;2023-06-04T07:06:17;140.73;;;82.93;;
20067;SDS011;10194;50.824;7.134;2023-06-04T07:08:43;144.13;;;89.40;;
20067;SDS011;10194;50.824;7.134;2023-06-04T07:11:09;147.67;;;95.60;;
20067;SDS011;10194;50.824;7.134;2023-06-04T07:13:38;157.60;;;107.43;;
20067;SDS011;10194;50.824;7.134;2023-06-04T07:16:04;159.77;;;117.53;;
20067;SDS011;10194;50.824;7.134;2023-06-04T07:18:30;164.57;;;126.83;;
20067;SDS011;10194;50.824;7.134;2023-06-04T07:20:56;148.20;;;108.57;;
20067;SDS011;10194;50.824;7.134;2023-06-04T07:23:21;160.07;;;121.77;;
20067;SDS011;10194;50.824;7.134;2023-06-04T07:25:47;165.67;;;128.93;;
20067;SDS011;10194;50.824;7.134;2023-06-04T07:28:13;160.20;;;125.90;;
20067;SDS011;10194;50.824;7.134;2023-06-04T07:30:39;165.57;;;128.90;;
20067;SDS011;10194;50.824;7.134;2023-06-04T07:33:04;164.73;;;131.97;;
20067;SDS011;10194;50.824;7.134;2023-06-04T07:35:31;163.43;;;131.40;;
20067;SDS011;10194;50.824;7.134;2023-06-04T07:37:57;160.73;;;128.93;;
20067;SDS011;10194;50.824;7.134;2023-06-04T07:40:23;167.43;;;132.83;;
20067;SDS011;10194;50.824;7.134;2023-06-04T07:42:48;164.87;;;125.47;;
20067;SDS011;10194;50.824;7.134;2023-06-04T07:45:14;163.37;;;122.50;;
20067;SDS011;10194;50.824;7.134;2023-06-04T07:47:40;153.47;;;106.83;;
20067;SDS011;10194;50.824;7.134;2023-06-04T07:50:08;162.83;;;114.57;;
20067;SDS011;10194;50.824;7.134;2023-06-04T07:52:34;155.80;;;106.50;;
20067;SDS011;10194;50.824;7.134;2023-06-04T07:55:00;162.40;;;110.83;;
20067;SDS011;10194;50.824;7.134;2023-06-04T07:57:26;163.27;;;107.83;;
20067;SDS011;10194;50.824;7.134;2023-06-04T07:59:52;164.10;;;100.23;;
20067;SDS011;10194;50.824;7.134;2023-06-04T08:02:18;152.23;;;95.30;;
20067;SDS011;10194;50.824;7.134;2023-06-04T08:04:44;147.23;;;89.93;;
20067;SDS011;10194;50.824;7.134;2023-06-04T08:07:11;158.13;;;97.37;;
20067;SDS011;10194;50.824;7.134;2023-06-04T08:09:37;155.30;;;97.20;;
20067;SDS011;10194;50.824;7.134;2023-06-04T08:12:03;150.27;;;92.80;;
20067;SDS011;10194;50.824;7.134;2023-06-04T08:14:29;157.93;;;100.43;;
20067;SDS011;10194;50.824;7.134;2023-06-04T08:16:56;155.93;;;95.83;;
20067;SDS011;10194;50.824;7.134;2023-06-04T08:19:22;158.37;;;93.53;;
20067;SDS011;10194;50.824;7.134;2023-06-04T08:21:49;146.30;;;86.30;;
20067;SDS011;10194;50.824;7.134;2023-06-04T08:24:15;152.97;;;94.00;;
20067;SDS011;10194;50.824;7.134;2023-06-04T08:26:41;145.80;;;88.40;;
20067;SDS011;10194;50.824;7.134;2023-06-04T08:29:07;156.60;;;97.93;;
20067;SDS011;10194;50.824;7.134;2023-06-04T08:31:33;156.73;;;96.73;;
20067;SDS011;10194;50.824;7.134;2023-06-04T08:33:59;155.57;;;98.10;;
20067;SDS011;10194;50.824;7.134;2023-06-04T08:36:26;159.13;;;100.83;;
20067;SDS011;10194;50.824;7.134;2023-06-04T08:38:52;153.43;;;91.67;;
20067;SDS011;10194;50.824;7.134;2023-06-04T08:43:57;150.23;;;89.80;;
20067;SDS011;10194;50.824;7.134;2023-06-04T08:46:26;153.70;;;95.57;;
20067;SDS011;10194;50.824;7.134;2023-06-04T08:48:54;162.00;;;104.37;;
20067;SDS011;10194;50.824;7.134;2023-06-04T08:51:26;160.87;;;103.80;;
20067;SDS011;10194;50.824;7.134;2023-06-04T08:53:52;162.40;;;102.03;;
20067;SDS011;10194;50.824;7.134;2023-06-04T08:56:19;160.50;;;101.00;;
20067;SDS011;10194;50.824;7.134;2023-06-04T08:58:47;158.87;;;103.63;;
20067;SDS011;10194;50.824;7.134;2023-06-04T09:01:13;158.57;;;103.33;;
20067;SDS011;10194;50.824;7.134;2023-06-04T09:03:39;149.40;;;93.80;;
20067;SDS011;10194;50.824;7.134;2023-06-04T09:06:06;151.00;;;94.03;;
20067;SDS011;10194;50.824;7.134;2023-06-04T09:08:34;157.40;;;100.57;;
20067;SDS011;10194;50.824;7.134;2023-06-04T09:11:07;150.93;;;94.43;;
20067;SDS011;10194;50.824;7.134;2023-06-04T09:13:36;154.77;;;98.37;;
20067;SDS011;10194;50.824;7.134;2023-06-04T09:16:04;158.80;;;101.87;;
20067;SDS011;10194;50.824;7.134;2023-06-04T09:18:31;158.00;;;102.13;;
20067;SDS011;10194;50.824;7.134;2023-06-04T09:21:04;160.60;;;104.80;;
20067;SDS011;10194;50.824;7.134;2023-06-04T09:23:36;153.17;;;98.10;;
20067;SDS011;10194;50.824;7.134;2023-06-04T09:26:10;144.50;;;87.90;;
20067;SDS011;10194;50.824;7.134;2023-06-04T09:28:39;148.73;;;91.57;;
20067;SDS011;10194;50.824;7.134;2023-06-04T09:31:14;153.03;;;91.73;;
20067;SDS011;10194;50.824;7.134;2023-06-04T09:33:45;147.20;;;89.77;;
20067;SDS011;10194;50.824;7.134;2023-06-04T09:36:12;154.63;;;98.83;;
20067;SDS011;10194;50.824;7.134;2023-06-04T09:38:38;147.67;;;91.87;;
20067;SDS011;10194;50.824;7.134;2023-06-04T09:41:10;155.20;;;99.93;;
20067;SDS011;10194;50.824;7.134;2023-06-04T09:43:37;159.47;;;103.73;;
20067;SDS011;10194;50.824;7.134;2023-06-04T09:48:41;153.23;;;97.40;;
20067;SDS011;10194;50.824;7.134;2023-06-04T09:53:43;149.23;;;92.10;;
20067;SDS011;10194;50.824;7.134;2023-06-04T09:56:21;155.53;;;98.50;;
20067;SDS011;10194;50.824;7.134;2023-06-04T09:58:48;152.57;;;94.13;;
20067;SDS011;10194;50.824;7.134;2023-06-04T10:01:15;156.73;;;99.97;;
20067;SDS011;10194;50.824;7.134;2023-06-04T10:03:42;154.13;;;95.87;;
20067;SDS011;10194;50.824;7.134;2023-06-04T10:06:16;148.73;;;90.23;;
20067;SDS011;10194;50.824;7.134;2023-06-04T10:08:48;150.03;;;93.70;;
20067;SDS011;10194;50.824;7.134;2023-06-04T10:11:17;157.70;;;98.73;;
20067;SDS011;10194;50.824;7.134;2023-06-04T10:13:56;150.90;;;91.67;;
20067;SDS011;10194;50.824;7.134;2023-06-04T10:16:29;149.00;;;91.43;;
20067;SDS011;10194;50.824;7.134;2023-06-04T10:18:57;159.17;;;100.40;;
20067;SDS011;10194;50.824;7.134;2023-06-04T10:21:24;157.10;;;101.77;;
20067;SDS011;10194;50.824;7.134;2023-06-04T10:23:51;158.90;;;103.40;;
20067;SDS011;10194;50.824;7.134;2023-06-04T10:26:17;150.30;;;94.63;;
20067;SDS011;10194;50.824;7.134;2023-06-04T10:28:43;157.13;;;101.33;;
20067;SDS011;10194;50.824;7.134;2023-06-04T10:31:10;144.73;;;87.97;;
20067;SDS011;10194;50.824;7.134;2023-06-04T10:33:36;148.57;;;91.47;;
20067;SDS011;10194;50.824;7.134;2023-06-04T10:36:16;157.30;;;99.20;;
20067;SDS011;10194;50.824;7.134;2023-06-04T10:38:48;157.00;;;101.77;;
20067;SDS011;10194;50.824;7.134;2023-06-04T10:41:16;161.47;;;100.43;;
20067;SDS011;10194;50.824;7.134;2023-06-04T10:43:46;155.67;;;101.27;;
20067;SDS011;10194;50.824;7.134;2023-06-04T10:46:17;141.87;;;83.87;;
20067;SDS011;10194;50.824;7.134;2023-06-04T10:48:48;155.77;;;99.50;;
20067;SDS011;10194;50.824;7.134;2023-06-04T10:51:31;153.93;;;96.07;;
20067;SDS011;10194;50.824;7.134;2023-06-04T10:53:59;157.63;;;98.00;;
20067;SDS011;10194;50.824;7.134;2023-06-04T10:56:27;155.70;;;97.23;;
20067;SDS011;10194;50.824;7.134;2023-06-04T10:58:58;152.10;;;95.97;;
20067;SDS011;10194;50.824;7.134;2023-06-04T11:01:25;156.93;;;102.07;;
20067;SDS011;10194;50.824;7.134;2023-06-04T11:03:53;151.27;;;94.10;;
20067;SDS011;10194;50.824;7.134;2023-06-04T11:06:20;155.67;;;97.53;;
20067;SDS011;10194;50.824;7.134;2023-06-04T11:08:47;150.40;;;92.97;;
20067;SDS011;10194;50.824;7.134;2023-06-04T11:11:14;157.73;;;100.27;;
20067;SDS011;10194;50.824;7.134;2023-06-04T11:13:41;153.77;;;93.13;;
20067;SDS011;10194;50.824;7.134;2023-06-04T11:16:14;157.30;;;97.07;;
20067;SDS011;10194;50.824;7.134;2023-06-04T11:18:54;156.27;;;98.27;;
20067;SDS011;10194;50.824;7.134;2023-06-04T11:21:21;157.43;;;96.93;;
20067;SDS011;10194;50.824;7.134;2023-06-04T11:23:47;155.63;;;98.23;;
20067;SDS011;10194;50.824;7.134;2023-06-04T11:26:13;151.53;;;94.23;;
20067;SDS011;10194;50.824;7.134;2023-06-04T11:28:39;160.03;;;103.77;;
20067;SDS011;10194;50.824;7.134;2023-06-04T11:31:08;158.53;;;99.50;;
20067;SDS011;10194;50.824;7.134;2023-06-04T11:33:46;148.60;;;90.67;;
20067;SDS011;10194;50.824;7.134;2023-06-04T11:36:23;160.27;;;101.87;;
20067;SDS011;10194;50.824;7.134;2023-06-04T11:39:09;154.10;;;99.03;;
20067;SDS011;10194;50.824;7.134;2023-06-04T11:41:36;150.80;;;94.63;;
20067;SDS011;10194;50.824;7.134;2023-06-04T11:44:03;152.37;;;97.23;;
20067;SDS011;10194;50.824;7.134;2023-06-04T11:46:34;144.80;;;85.77;;
20067;SDS011;10194;50.824;7.134;2023-06-04T11:49:01;146.73;;;89.60;;
20067;SDS011;10194;50.824;7.134;2023-06-04T11:51:28;156.30;;;98.07;;
20067;SDS011;10194;50.824;7.134;2023-06-04T11:53:54;151.00;;;94.33;;
20067;SDS011;10194;50.824;7.134;2023-06-04T11:56:20;161.83;;;103.00;;
20067;SDS011;10194;50.824;7.134;2023-06-04T11:58:49;151.93;;;92.73;;
20067;SDS011;10194;50.824;7.134;2023-06-04T12:01:15;148.47;;;89.07;;
20067;SDS011;10194;50.824;7.134;2023-06-04T12:03:41;154.63;;;97.33;;
20067;SDS011;10194;50.824;7.134;2023-06-04T12:06:14;144.30;;;85.23;;
20067;SDS011;10194;50.824;7.134;2023-06-04T12:11:46;160.80;;;99.63;;
20067;SDS011;10194;50.824;7.134;2023-06-04T12:14:06;160.17;;;104.27;;
20067;SDS011;10194;50.824;7.134;2023-06-04T12:16:33;152.83;;;96.07;;
20067;SDS011;10194;50.824;7.134;2023-06-04T12:19:05;149.43;;;92.10;;
20067;SDS011;10194;50.824;7.134;2023-06-04T12:21:36;158.97;;;101.47;;
20067;SDS011;10194;50.824;7.134;2023-06-04T12:24:07;152.17;;;93.00;;
20067;SDS011;10194;50.824;7.134;2023-06-04T12:26:38;155.10;;;95.57;;
20067;SDS011;10194;50.824;7.134;2023-06-04T12:29:13;154.43;;;95.57;;
20067;SDS011;10194;50.824;7.134;2023-06-04T12:31:43;163.77;;;102.77;;
20067;SDS011;10194;50.824;7.134;2023-06-04T12:34:10;151.53;;;94.67;;
20067;SDS011;10194;50.824;7.134;2023-06-04T12:36:37;158.97;;;102.23;;
20067;SDS011;10194;50.824;7.134;2023-06-04T12:39:03;152.73;;;93.87;;
20067;SDS011;10194;50.824;7.134;2023-06-04T12:41:30;153.43;;;95.43;;
20067;SDS011;10194;50.824;7.134;2023-06-04T12:43:58;155.20;;;98.47;;
20067;SDS011;10194;50.824;7.134;2023-06-04T12:46:25;149.27;;;91.67;;
20067;SDS011;10194;50.824;7.134;2023-06-04T12:48:51;157.30;;;99.33;;
20067;SDS011;10194;50.824;7.134;2023-06-04T12:51:19;157.80;;;100.67;;
20067;SDS011;10194;50.824;7.134;2023-06-04T12:53:46;152.60;;;93.20;;
20067;SDS011;10194;50.824;7.134;2023-06-04T12:56:12;163.33;;;101.23;;
20067;SDS011;10194;50.824;7.134;2023-06-04T12:58:38;155.10;;;100.27;;
20067;SDS011;10194;50.824;7.134;2023-06-04T13:01:05;157.80;;;102.73;;
20067;SDS011;10194;50.824;7.134;2023-06-04T13:03:31;157.47;;;101.73;;
20067;SDS011;10194;50.824;7.134;2023-06-04T13:06:01;161.57;;;103.10;;
20067;SDS011;10194;50.824;7.134;2023-06-04T13:08:27;156.20;;;99.50;;
20067;SDS011;10194;50.824;7.134;2023-06-04T13:10:53;155.97;;;96.23;;
20067;SDS011;10194;50.824;7.134;2023-06-04T13:13:19;161.07;;;103.30;;
20067;SDS011;10194;50.824;7.134;2023-06-04T13:15:45;160.90;;;103.17;;
20067;SDS011;10194;50.824;7.134;2023-06-04T13:18:11;159.30;;;102.87;;
20067;SDS011;10194;50.824;7.134;2023-06-04T13:20:37;159.10;;;99.87;;
20067;SDS011;10194;50.824;7.134;2023-06-04T13:23:06;157.53;;;98.23;;
20067;SDS011;10194;50.824;7.134;2023-06-04T13:25:32;162.60;;;101.30;;
20067;SDS011;10194;50.824;7.134;2023-06-04T13:28:02;160.00;;;102.77;;
20067;SDS011;10194;50.824;7.134;2023-06-04T13:30:28;160.10;;;99.87;;
20067;SDS011;10194;50.824;7.134;2023-06-04T13:32:54;160.33;;;101.13;;
20067;SDS011;10194;50.824;7.134;2023-06-04T13:35:20;150.30;;;93.93;;
20067;SDS011;10194;50.824;7.134;2023-06-04T13:37:46;156.63;;;99.10;;
20067;SDS011;10194;50.824;7.134;2023-06-04T13:40:12;161.97;;;102.30;;
20067;SDS011;10194;50.824;7.134;2023-06-04T13:42:39;155.07;;;97.33;;
20067;SDS011;10194;50.824;7.134;2023-06-04T13:45:05;158.17;;;102.97;;
20067;SDS011;10194;50.824;7.134;2023-06-04T13:47:31;152.57;;;95.47;;
20067;SDS011;10194;50.824;7.134;2023-06-04T13:49:57;154.67;;;97.57;;
20067;SDS011;10194;50.824;7.134;2023-06-04T13:52:23;154.97;;;99.40;;
20067;SDS011;10194;50.824;7.134;2023-06-04T13:54:49;148.20;;;86.70;;
20067;SDS011;10194;50.824;7.134;2023-06-04T13:57:16;145.33;;;86.00;;
20067;SDS011;10194;50.824;7.134;2023-06-04T13:59:42;158.03;;;100.17;;
20067;SDS011;10194;50.824;7.134;2023-06-04T14:02:07;145.03;;;87.33;;
20067;SDS011;10194;50.824;7.134;2023-06-04T14:04:33;154.67;;;98.27;;
20067;SDS011;10194;50.824;7.134;2023-06-04T14:06:59;157.43;;;99.03;;
20067;SDS011;10194;50.824;7.134;2023-06-04T14:09:25;155.90;;;93.70;;
20067;SDS011;10194;50.824;7.134;2023-06-04T14:11:51;160.67;;;104.60;;
20067;SDS011;10194;50.824;7.134;2023-06-04T14:14:17;161.23;;;104.07;;
20067;SDS011;10194;50.824;7.134;2023-06-04T14:16:44;160.30;;;102.57;;
20067;SDS011;10194;50.824;7.134;2023-06-04T14:19:10;159.87;;;104.83;;